Terminal Aerodrome Forecast
Issued by NWS Wilmington, OH

Current Version | Previous Version | Graphics & Text | Print | Product List | Glossary On
Versions: 1 2 3 4 5 6 7 8 9 10 11 12 13 14 15 16 17 18 19 20 21 22 23 24 25 26 27 28 29 30 31 32 33 34 35
685
FTUS41 KILN 240045 AAB
TAFILN
TAF AMD
KILN 240045Z 2401/2424 VRB05KT P6SM -RA SCT028 OVC110
     FM240300 26006KT P6SM VCSH OVC025
     FM240600 32007KT 4SM BR BKN220
     FM241300 28009KT P6SM SCT250
     FM241700 28012G20KT P6SM SCT090=

USA.gov is the U.S. government's official web portal to all federal, state and local government web resources and services.